Time;durP1;ratioP1;P1;durP2;ratioP2;P2;SDS_P1;SDS_P2;PMS_P1;PMS_P2;Temp;Humidity;BMP_temperature;BMP_pressure;BME280_temperature;BME280_humidity;BME280_pressure;Samples;Min_cycle;Max_cycle;Signal;HPM_P1;HPM_P2
2022/01/30 00:00:47;;;;;;;3.70;1.70;;;-5.50;99.90;;;;;;5074631;28;20106;-76
2022/01/30 00:03:15;;;;;;;1.77;1.48;;;-5.50;99.90;;;;;;5074557;28;20027;-75
2022/01/30 00:05:41;;;;;;;2.25;1.45;;;-5.50;99.90;;;;;;5074499;28;20487;-75
2022/01/30 00:08:07;;;;;;;5.25;1.35;;;-5.50;99.90;;;;;;5074572;28;20434;-76
2022/01/30 00:10:38;;;;;;;4.00;1.42;;;-5.50;99.90;;;;;;5074448;28;20434;-76
2022/01/30 00:13:06;;;;;;;2.00;1.20;;;-5.50;99.90;;;;;;5074297;28;20025;-76
2022/01/30 00:15:51;;;;;;;1.35;1.20;;;-5.50;99.90;;;;;;5074243;28;20028;-76
2022/01/30 00:23:28;;;;;;;1.20;1.10;;;-5.60;99.90;;;;;;5074364;28;20032;-76
2022/01/30 00:25:56;;;;;;;1.77;1.33;;;-5.60;99.90;;;;;;5074293;28;20028;-76
2022/01/30 00:28:25;;;;;;;2.60;1.45;;;-5.60;99.90;;;;;;5073806;28;20028;-76
2022/01/30 00:30:51;;;;;;;2.22;1.50;;;-5.70;99.90;;;;;;5073892;28;20025;-76
2022/01/30 00:33:17;;;;;;;1.55;1.45;;;-5.70;99.90;;;;;;5073659;28;20025;-76
2022/01/30 00:35:43;;;;;;;3.15;1.30;;;-5.70;99.90;;;;;;5073633;28;20101;-76
2022/01/30 00:38:15;;;;;;;2.50;1.25;;;-5.70;99.90;;;;;;5073445;28;20041;-76
2022/01/30 00:40:41;;;;;;;5.95;1.60;;;-5.70;99.90;;;;;;5073945;28;20109;-75
2022/01/30 00:43:07;;;;;;;1.52;1.30;;;-5.70;99.90;;;;;;5073753;28;20031;-76
2022/01/30 00:45:33;;;;;;;2.85;1.52;;;-5.80;99.90;;;;;;5073765;28;20365;-76
2022/01/30 00:47:59;;;;;;;1.73;1.27;;;-5.70;99.90;;;;;;5072665;28;20029;-76
2022/01/30 00:50:25;;;;;;;2.10;1.30;;;-5.70;99.90;;;;;;5073434;28;20480;-76
2022/01/30 00:52:55;;;;;;;3.45;1.52;;;-5.80;99.90;;;;;;5073713;28;20430;-76
2022/01/30 00:55:22;;;;;;;2.85;1.50;;;-5.80;99.90;;;;;;5073238;28;20025;-76
2022/01/30 00:57:47;;;;;;;3.40;1.52;;;-5.80;99.90;;;;;;5073284;28;20031;-76
2022/01/30 01:00:15;;;;;;;5.47;1.52;;;-5.80;99.90;;;;;;5073160;28;20020;-76
2022/01/30 01:02:41;;;;;;;1.30;1.15;;;-5.70;99.90;;;;;;5073202;28;20476;-76
2022/01/30 01:05:07;;;;;;;4.75;1.50;;;-5.70;99.90;;;;;;5073031;28;20111;-76
2022/01/30 01:07:34;;;;;;;1.55;1.40;;;-5.70;99.90;;;;;;5073172;28;20082;-76
2022/01/30 01:10:10;;;;;;;1.70;1.60;;;-5.70;99.90;;;;;;5073279;28;20031;-76
2022/01/30 01:23:27;;;;;;;3.25;1.42;;;-5.80;99.90;;;;;;5072822;28;20097;-76
2022/01/30 01:25:54;;;;;;;3.25;1.45;;;-5.80;99.90;;;;;;5072816;28;20115;-76
2022/01/30 01:28:20;;;;;;;1.65;1.55;;;-5.70;99.90;;;;;;5072734;28;20432;-75
2022/01/30 01:30:46;;;;;;;1.73;1.23;;;-5.70;99.90;;;;;;5072796;28;20178;-76
2022/01/30 01:33:12;;;;;;;2.97;1.70;;;-5.70;99.90;;;;;;5072394;28;20059;-76
2022/01/30 01:35:38;;;;;;;1.63;1.52;;;-5.60;99.90;;;;;;5072679;28;20388;-76
2022/01/30 01:38:04;;;;;;;2.08;1.50;;;-5.60;99.90;;;;;;5072128;28;20041;-76
2022/01/30 01:40:30;;;;;;;2.60;1.65;;;-5.70;99.90;;;;;;5072308;28;20032;-76
2022/01/30 01:43:00;;;;;;;2.38;1.30;;;-5.70;99.90;;;;;;5072600;28;20059;-76
2022/01/30 01:45:32;;;;;;;1.38;1.17;;;-5.70;99.90;;;;;;5072323;28;20032;-76
2022/01/30 01:48:02;;;;;;;3.13;1.70;;;-5.70;99.90;;;;;;5072267;28;20115;-78
2022/01/30 01:51:15;;;;;;;1.95;1.23;;;-5.70;99.90;;;;;;5072538;28;20025;-78
2022/01/30 01:53:15;;;;;;;2.30;1.60;;;-5.70;99.90;;;;;;5057634;28;20041;-78
2022/01/30 01:55:43;;;;;;;1.63;1.30;;;-5.80;99.90;;;;;;5072222;28;20052;-76
2022/01/30 01:58:09;;;;;;;2.65;1.55;;;-5.80;99.90;;;;;;5071591;28;20020;-76
2022/01/30 02:00:36;;;;;;;1.77;1.33;;;-5.80;99.90;;;;;;5071976;28;20029;-77
2022/01/30 02:03:02;;;;;;;2.40;1.27;;;-5.70;99.90;;;;;;5071948;28;20071;-78
2022/01/30 02:05:30;;;;;;;3.38;1.63;;;-5.80;99.90;;;;;;5071983;28;20029;-78
2022/01/30 02:10:45;;;;;;;2.83;1.40;;;-5.80;99.90;;;;;;5072352;28;20052;-78
2022/01/30 02:56:26;;;;;;;1.33;1.13;;;-5.80;99.90;;;;;;5053082;28;20056;-79
2022/01/30 02:58:52;;;;;;;1.60;1.50;;;-5.80;99.90;;;;;;5052475;28;20025;-78
2022/01/30 03:01:18;;;;;;;4.05;1.50;;;-5.80;99.90;;;;;;5051361;28;20080;-79
2022/01/30 03:37:23;;;;;;;1.75;1.08;;;-5.50;99.90;;;;;;6044942;22;20347;-76
2022/01/30 03:39:49;;;;;;;2.15;1.35;;;-5.50;99.90;;;;;;5052751;28;20507;-78
2022/01/30 03:42:15;;;;;;;1.35;1.20;;;-5.50;99.90;;;;;;5054693;28;20041;-78
2022/01/30 03:44:40;;;;;;;1.33;1.23;;;-5.50;99.90;;;;;;5054698;28;20464;-79
2022/01/30 03:47:06;;;;;;;3.72;1.10;;;-5.50;99.90;;;;;;5055146;28;20095;-78
2022/01/30 03:49:33;;;;;;;5.55;1.40;;;-5.50;99.90;;;;;;5054879;28;20472;-79
2022/01/30 03:51:58;;;;;;;4.78;1.23;;;-5.50;99.90;;;;;;5054618;28;20029;-79
2022/01/30 03:54:24;;;;;;;1.08;1.02;;;-5.40;99.90;;;;;;5054563;28;20027;-78
2022/01/30 03:56:50;;;;;;;2.60;1.05;;;-5.40;99.90;;;;;;5054790;28;20057;-80
2022/01/30 03:59:15;;;;;;;2.50;1.33;;;-5.40;99.90;;;;;;5054470;28;20043;-80
2022/01/30 04:01:41;;;;;;;3.50;1.40;;;-5.40;99.90;;;;;;5054602;28;20036;-80
2022/01/30 04:04:07;;;;;;;1.55;1.40;;;-5.40;99.90;;;;;;5054746;28;20571;-79
2022/01/30 04:06:33;;;;;;;2.30;1.30;;;-5.30;99.90;;;;;;5054676;28;20044;-79
2022/01/30 04:08:59;;;;;;;1.50;1.15;;;-5.30;99.90;;;;;;5054125;28;20071;-79
2022/01/30 04:11:25;;;;;;;2.00;1.10;;;-5.30;99.90;;;;;;5054596;28;20033;-79
2022/01/30 04:13:50;;;;;;;2.72;1.20;;;-5.30;99.90;;;;;;5054041;28;20150;-79
2022/01/30 04:16:17;;;;;;;2.95;1.35;;;-5.20;99.90;;;;;;5054213;28;20021;-79
2022/01/30 04:18:42;;;;;;;1.30;1.20;;;-5.20;99.90;;;;;;5054289;28;20021;-79
2022/01/30 04:21:08;;;;;;;1.80;1.10;;;-5.20;99.90;;;;;;5053951;28;20151;-79
2022/01/30 04:23:34;;;;;;;1.30;1.20;;;-5.20;99.90;;;;;;5054303;28;20025;-79
2022/01/30 04:25:59;;;;;;;1.33;1.23;;;-5.20;99.90;;;;;;5053864;28;20025;-82
2022/01/30 04:28:25;;;;;;;1.15;1.10;;;-5.10;99.90;;;;;;5053966;28;20119;-80
2022/01/30 04:30:51;;;;;;;1.17;1.15;;;-5.10;99.90;;;;;;5053792;28;20498;-79
2022/01/30 04:33:17;;;;;;;1.30;1.20;;;-5.10;99.90;;;;;;5054170;28;20025;-79
2022/01/30 04:35:44;;;;;;;2.55;1.23;;;-5.10;99.90;;;;;;5053784;28;20419;-79
2022/01/30 04:38:30;;;;;;;1.10;1.10;;;-5.10;99.90;;;;;;5053563;28;20053;-81
2022/01/30 04:52:26;;;;;;;2.15;1.23;;;-4.90;99.90;;;;;;5053935;28;20075;-77
2022/01/30 05:03:56;;;;;;;5.38;1.15;;;-4.90;99.90;;;;;;5053224;28;20044;-77
2022/01/30 05:06:10;;;;;;;1.20;1.10;;;-4.90;99.90;;;;;;5044683;28;20036;-77
2022/01/30 05:08:36;;;;;;;1.83;1.13;;;-4.90;99.90;;;;;;5053467;28;20032;-77
2022/01/30 05:11:05;;;;;;;2.42;1.10;;;-4.90;99.90;;;;;;5053360;28;20075;-77
2022/01/30 05:13:33;;;;;;;2.95;1.20;;;-4.90;99.90;;;;;;5052270;28;20055;-78
2022/01/30 05:15:59;;;;;;;1.98;1.15;;;-4.80;99.90;;;;;;5053236;28;20025;-80
2022/01/30 05:18:26;;;;;;;1.55;1.45;;;-4.90;99.90;;;;;;5052885;28;20096;-78
2022/01/30 05:20:52;;;;;;;1.00;1.00;;;-4.80;99.90;;;;;;5053193;28;20120;-79
2022/01/30 05:23:18;;;;;;;0.85;0.85;;;-4.80;99.90;;;;;;5053029;28;20021;-80
2022/01/30 05:25:46;;;;;;;1.40;1.30;;;-4.90;99.90;;;;;;5052912;28;20403;-79
2022/01/30 05:28:12;;;;;;;2.42;1.10;;;-4.80;99.90;;;;;;5052736;28;20036;-78
2022/01/30 05:30:38;;;;;;;2.45;1.20;;;-4.80;99.90;;;;;;5052892;28;20024;-79
2022/01/30 05:33:05;;;;;;;1.83;1.20;;;-4.80;99.90;;;;;;5052024;28;20472;-78
2022/01/30 05:35:31;;;;;;;1.08;1.08;;;-4.80;99.90;;;;;;5052883;28;20029;-75
2022/01/30 05:37:57;;;;;;;1.13;0.88;;;-4.80;99.90;;;;;;5052465;28;20403;-73
2022/01/30 05:40:23;;;;;;;1.60;1.00;;;-4.80;99.90;;;;;;5052912;28;20029;-73
2022/01/30 05:42:50;;;;;;;0.88;0.88;;;-1.50;99.90;;;;;;5052511;28;20499;-81
2022/01/30 05:47:47;;;;;;;1.20;1.00;;;-1.20;99.90;;;;;;5052407;28;20376;-75
2022/01/30 05:50:14;;;;;;;2.40;1.00;;;-2.20;99.90;;;;;;5060847;28;20066;-78
2022/01/30 05:52:39;;;;;;;0.85;0.85;;;-2.90;99.90;;;;;;5063819;28;20082;-77
2022/01/30 05:55:05;;;;;;;1.27;1.00;;;-3.30;99.90;;;;;;5061947;28;20036;-77
2022/01/30 05:57:31;;;;;;;0.80;0.80;;;-3.70;99.90;;;;;;5070687;28;20070;-79
2022/01/30 05:59:57;;;;;;;2.13;1.10;;;-3.90;99.90;;;;;;5066224;28;20028;-75
2022/01/30 06:02:22;;;;;;;0.80;0.80;;;-4.10;99.90;;;;;;5069215;28;20616;-77
2022/01/30 06:04:48;;;;;;;2.08;1.00;;;-4.20;99.90;;;;;;5071502;28;20029;-75
2022/01/30 06:07:14;;;;;;;4.32;1.05;;;-4.30;99.90;;;;;;5070883;28;20025;-75
2022/01/30 06:09:40;;;;;;;1.85;1.08;;;-4.40;99.90;;;;;;5071177;28;20460;-75
2022/01/30 06:12:06;;;;;;;1.10;1.00;;;-4.40;99.90;;;;;;5071558;28;20025;-76
2022/01/30 06:14:32;;;;;;;2.80;1.10;;;-4.40;99.90;;;;;;5066196;28;20391;-78
2022/01/30 06:16:57;;;;;;;0.80;0.80;;;-4.50;99.90;;;;;;5068679;28;20021;-79
2022/01/30 06:19:24;;;;;;;2.03;1.08;;;-4.50;99.90;;;;;;5072171;28;20024;-78
2022/01/30 06:21:50;;;;;;;2.22;0.98;;;-4.60;99.90;;;;;;5072091;28;20040;-74
2022/01/30 06:24:16;;;;;;;1.08;1.00;;;-4.60;99.90;;;;;;5072428;28;20384;-77
2022/01/30 06:26:42;;;;;;;0.90;0.90;;;-4.60;99.90;;;;;;5072307;28;20379;-77
2022/01/30 06:29:07;;;;;;;0.90;0.90;;;-4.40;99.90;;;;;;5071804;28;20016;-78
2022/01/30 06:31:33;;;;;;;1.20;1.10;;;-4.50;99.90;;;;;;5072213;28;20048;-75
2022/01/30 06:33:59;;;;;;;1.90;1.10;;;-4.50;99.90;;;;;;5071457;28;20499;-75
2022/01/30 06:36:24;;;;;;;2.78;1.55;;;-4.50;99.90;;;;;;5071872;28;20052;-75
2022/01/30 06:38:52;;;;;;;0.93;0.82;;;-4.50;99.90;;;;;;5071404;28;20151;-75
2022/01/30 06:41:18;;;;;;;2.22;1.20;;;-4.50;99.90;;;;;;5071988;28;20028;-75
2022/01/30 06:43:44;;;;;;;1.20;1.10;;;-4.60;99.90;;;;;;5071702;28;20050;-75
2022/01/30 06:46:15;;;;;;;0.90;0.90;;;-4.60;99.90;;;;;;5074871;28;20062;-73
2022/01/30 06:48:40;;;;;;;1.33;1.10;;;-4.60;99.90;;;;;;5075788;28;20032;-73
2022/01/30 06:51:06;;;;;;;1.00;0.95;;;-4.60;99.90;;;;;;5075820;28;20119;-72
2022/01/30 06:53:32;;;;;;;3.50;1.15;;;-4.60;99.90;;;;;;5076001;28;20112;-73
2022/01/30 06:55:58;;;;;;;2.22;1.35;;;-4.60;99.90;;;;;;5075905;28;20116;-71
2022/01/30 06:58:23;;;;;;;0.85;0.85;;;-4.70;99.90;;;;;;5075520;28;20445;-79
2022/01/30 07:00:49;;;;;;;1.48;1.05;;;-4.70;99.90;;;;;;5075723;28;20028;-75
2022/01/30 07:03:15;;;;;;;3.42;1.05;;;-4.70;99.90;;;;;;5075679;28;20044;-71
2022/01/30 07:05:41;;;;;;;2.30;1.05;;;-4.40;99.90;;;;;;5075590;28;20056;-75
2022/01/30 07:08:06;;;;;;;1.08;0.98;;;-2.70;99.90;;;;;;5075557;28;20051;-82
2022/01/30 07:10:32;;;;;;;2.05;0.98;;;-2.50;99.90;;;;;;5075504;28;20594;-66
2022/01/30 07:12:58;;;;;;;3.30;1.10;;;-3.10;99.90;;;;;;5075577;28;20024;-66
2022/01/30 07:15:23;;;;;;;1.17;1.08;;;-2.50;99.90;;;;;;5075308;28;20033;-66
2022/01/30 07:17:49;;;;;;;1.85;1.10;;;-2.50;99.90;;;;;;5074696;28;20025;-67
2022/01/30 07:20:15;;;;;;;2.15;1.20;;;-2.80;99.90;;;;;;5074512;28;20082;-77
2022/01/30 07:22:41;;;;;;;1.25;1.08;;;-3.10;99.90;;;;;;5075348;28;20036;-72
2022/01/30 07:25:07;;;;;;;1.20;1.10;;;-3.60;99.90;;;;;;5075017;28;20016;-74
2022/01/30 07:27:37;;;;;;;2.88;1.00;;;-3.90;99.90;;;;;;5075505;28;20119;-74
2022/01/30 07:30:05;;;;;;;1.10;1.00;;;-4.10;99.90;;;;;;5075045;28;20039;-68
2022/01/30 07:32:31;;;;;;;12.18;10.80;;;-4.20;99.90;;;;;;5073901;28;20029;-71
2022/01/30 07:34:56;;;;;;;1.48;1.38;;;-4.20;99.90;;;;;;5074985;28;20386;-70
2022/01/30 07:37:23;;;;;;;2.10;1.23;;;-4.30;99.90;;;;;;5074663;28;20390;-70
2022/01/30 07:39:49;;;;;;;3.17;1.55;;;-4.40;99.90;;;;;;5072150;28;20438;-70
2022/01/30 07:42:15;;;;;;;4.18;1.20;;;-4.40;99.90;;;;;;5071563;28;20037;-74
2022/01/30 07:44:41;;;;;;;1.75;1.17;;;-4.60;99.90;;;;;;5074216;28;20410;-70
2022/01/30 07:47:07;;;;;;;1.80;1.10;;;-4.60;99.90;;;;;;5074774;28;20028;-70
2022/01/30 07:49:32;;;;;;;1.42;1.15;;;-4.60;99.90;;;;;;5072838;28;20021;-70
2022/01/30 07:51:58;;;;;;;4.47;1.10;;;-4.70;99.90;;;;;;5074820;28;20032;-70
2022/01/30 07:54:24;;;;;;;2.45;1.25;;;-4.50;99.90;;;;;;5074606;28;20214;-69
2022/01/30 07:56:50;;;;;;;1.55;1.10;;;-3.60;99.90;;;;;;5073930;28;20424;-69
2022/01/30 07:59:15;;;;;;;1.05;1.05;;;-3.20;99.90;;;;;;5072857;28;20024;-68
2022/01/30 08:01:41;;;;;;;3.63;1.27;;;-3.40;99.90;;;;;;5073893;28;20068;-69
2022/01/30 08:04:07;;;;;;;1.38;1.27;;;-3.90;99.90;;;;;;5074034;28;20043;-69
2022/01/30 08:06:36;;;;;;;1.00;1.00;;;-4.10;99.90;;;;;;5074460;28;20422;-69
2022/01/30 08:09:02;;;;;;;1.00;1.00;;;-4.30;99.90;;;;;;5074167;28;20082;-69
2022/01/30 08:11:28;;;;;;;3.88;1.30;;;-4.40;99.90;;;;;;5074165;28;20495;-70
2022/01/30 08:13:53;;;;;;;1.80;1.00;;;-4.60;99.90;;;;;;5073914;28;20095;-73
2022/01/30 08:16:20;;;;;;;3.30;1.38;;;-3.60;99.90;;;;;;5074464;28;20379;-71
2022/01/30 08:18:46;;;;;;;2.83;1.35;;;-3.60;99.90;;;;;;5074288;28;20099;-73
2022/01/30 08:21:12;;;;;;;1.75;1.40;;;-3.50;99.90;;;;;;5074255;28;20070;-73
2022/01/30 08:23:38;;;;;;;1.17;1.10;;;-3.70;99.90;;;;;;5074113;28;20514;-73
2022/01/30 08:26:04;;;;;;;0.93;0.93;;;-4.00;99.90;;;;;;5073858;28;20020;-71
2022/01/30 08:28:30;;;;;;;1.40;1.30;;;-4.30;99.90;;;;;;5073988;28;20027;-71
2022/01/30 08:30:56;;;;;;;2.90;1.45;;;-4.50;99.90;;;;;;5073939;28;20040;-70
2022/01/30 08:33:21;;;;;;;1.05;0.95;;;-4.60;99.90;;;;;;5074264;28;20052;-71
2022/01/30 08:35:48;;;;;;;1.25;1.15;;;-4.60;99.90;;;;;;5073902;28;20463;-71
2022/01/30 08:38:16;;;;;;;1.23;1.13;;;-4.60;99.90;;;;;;5073249;28;20080;-70
2022/01/30 08:40:42;;;;;;;3.38;1.40;;;-4.70;99.90;;;;;;5073548;28;20044;-78
2022/01/30 08:43:07;;;;;;;2.28;1.38;;;-4.70;99.90;;;;;;5073005;28;20033;-76
2022/01/30 08:45:34;;;;;;;1.50;1.20;;;-4.70;99.90;;;;;;5073493;28;20082;-76
2022/01/30 08:47:59;;;;;;;1.55;1.10;;;-4.70;99.90;;;;;;5073543;28;20025;-76
2022/01/30 08:50:25;;;;;;;1.92;1.50;;;-4.60;99.90;;;;;;5073529;28;20031;-79
2022/01/30 08:52:52;;;;;;;1.20;1.10;;;-4.60;99.90;;;;;;5073665;28;20026;-74
2022/01/30 08:55:18;;;;;;;1.63;1.30;;;-4.70;99.90;;;;;;5077635;28;20035;-73
2022/01/30 08:57:45;;;;;;;2.40;1.40;;;-4.70;99.90;;;;;;5073465;28;20024;-74
2022/01/30 09:00:16;;;;;;;1.10;0.90;;;-4.80;99.90;;;;;;5073197;28;20052;-74
2022/01/30 09:02:42;;;;;;;1.27;1.17;;;-4.80;99.90;;;;;;5073317;28;20055;-74
2022/01/30 09:05:10;;;;;;;2.42;1.20;;;-4.80;99.90;;;;;;5073347;28;20375;-72
2022/01/30 09:07:36;;;;;;;1.15;1.08;;;-4.90;99.90;;;;;;5068381;28;20058;-74
2022/01/30 09:10:04;;;;;;;1.45;1.13;;;-4.90;99.90;;;;;;5072969;28;20024;-75
2022/01/30 09:12:29;;;;;;;1.10;1.00;;;-4.80;99.90;;;;;;5072930;28;20029;-74
2022/01/30 09:14:55;;;;;;;1.30;1.20;;;-4.80;99.90;;;;;;5073023;28;20066;-75
2022/01/30 09:17:22;;;;;;;1.40;1.30;;;-4.80;99.90;;;;;;5073161;28;20025;-76
2022/01/30 09:19:48;;;;;;;1.50;1.40;;;-4.80;99.90;;;;;;5072929;28;20027;-75
2022/01/30 09:22:18;;;;;;;2.70;1.30;;;-4.80;99.90;;;;;;5073041;28;20043;-74
2022/01/30 09:24:45;;;;;;;1.38;1.27;;;-4.70;99.90;;;;;;5072817;28;20074;-74
2022/01/30 09:27:11;;;;;;;1.35;1.20;;;-4.70;99.90;;;;;;5072804;28;20033;-74
2022/01/30 09:29:38;;;;;;;1.48;1.27;;;-4.80;99.90;;;;;;5072753;28;20475;-75
2022/01/30 09:32:05;;;;;;;3.20;1.20;;;-4.80;99.90;;;;;;5072656;28;20033;-75
2022/01/30 09:34:31;;;;;;;1.30;1.20;;;-4.80;99.90;;;;;;5072600;28;20111;-75
2022/01/30 09:36:57;;;;;;;2.17;1.30;;;-4.80;99.90;;;;;;5069773;28;20509;-74
2022/01/30 09:39:23;;;;;;;1.40;1.20;;;-4.80;99.90;;;;;;5052553;28;20136;-75
2022/01/30 09:41:51;;;;;;;4.93;1.48;;;-4.80;99.90;;;;;;5052581;28;20110;-75
2022/01/30 09:44:19;;;;;;;2.08;1.35;;;-4.80;99.90;;;;;;5056199;28;20020;-74
2022/01/30 09:46:45;;;;;;;1.27;1.08;;;-4.70;99.90;;;;;;5072729;28;20039;-75
2022/01/30 09:49:12;;;;;;;2.45;1.48;;;-4.80;99.90;;;;;;5072305;28;20020;-75
2022/01/30 09:51:40;;;;;;;1.35;1.25;;;-4.80;99.90;;;;;;5072445;28;20345;-74
2022/01/30 09:54:07;;;;;;;2.25;1.27;;;-4.80;99.90;;;;;;5072362;28;20056;-73
2022/01/30 09:56:34;;;;;;;1.00;1.00;;;-4.80;99.90;;;;;;5072684;28;20033;-72
2022/01/30 09:59:01;;;;;;;4.35;1.42;;;-4.70;99.90;;;;;;5072458;28;20032;-73
2022/01/30 10:01:33;;;;;;;1.50;1.10;;;-4.70;99.90;;;;;;5072188;28;20028;-73
2022/01/30 10:03:59;;;;;;;1.67;1.08;;;-3.30;99.90;;;;;;5072080;28;20098;-73
2022/01/30 10:06:31;;;;;;;2.45;1.23;;;-3.00;99.90;;;;;;5072379;28;20143;-73
2022/01/30 10:08:59;;;;;;;1.25;1.15;;;-3.50;99.90;;;;;;5072035;28;20043;-74
2022/01/30 10:11:45;;;;;;;1.30;1.20;;;-3.90;99.90;;;;;;5072360;28;20032;-73
2022/01/30 10:14:16;;;;;;;1.45;1.20;;;-4.10;99.90;;;;;;5070776;28;20017;-73
2022/01/30 10:16:44;;;;;;;1.73;1.05;;;-4.30;99.90;;;;;;5072071;28;20074;-73
2022/01/30 10:19:12;;;;;;;1.98;1.10;;;-4.50;99.90;;;;;;5071711;28;20035;-73
2022/01/30 10:21:40;;;;;;;0.88;0.82;;;-4.50;99.90;;;;;;5072151;28;20100;-73
2022/01/30 10:24:28;;;;;;;1.10;1.10;;;-4.30;99.90;;;;;;5071931;28;20036;-70
2022/01/30 10:26:57;;;;;;;2.78;1.00;;;-3.20;99.90;;;;;;5066150;28;20020;-72
2022/01/30 10:29:30;;;;;;;0.93;0.90;;;-3.50;99.90;;;;;;5071927;28;20028;-72
2022/01/30 10:32:08;;;;;;;1.20;0.90;;;-3.70;99.90;;;;;;5071782;28;20078;-72
2022/01/30 10:34:38;;;;;;;1.00;1.00;;;-3.90;99.90;;;;;;5071809;28;20039;-73
2022/01/30 10:37:21;;;;;;;3.38;1.17;;;-4.00;99.90;;;;;;5071910;28;20036;-72
2022/01/30 10:40:07;;;;;;;1.00;1.00;;;-4.10;99.90;;;;;;5071881;28;20137;-72
2022/01/30 10:42:50;;;;;;;1.25;1.15;;;-4.20;99.90;;;;;;5070542;28;20163;-72
2022/01/30 10:45:27;;;;;;;1.33;1.15;;;-4.20;99.90;;;;;;5071675;28;20020;-72
2022/01/30 10:48:11;;;;;;;1.42;1.00;;;-4.30;99.90;;;;;;5071753;28;20017;-72
2022/01/30 10:50:39;;;;;;;1.20;1.10;;;-4.30;99.90;;;;;;5071696;28;20728;-72
2022/01/30 10:53:06;;;;;;;1.13;1.00;;;-4.40;99.90;;;;;;5072320;28;20162;-72
2022/01/30 10:55:50;;;;;;;1.48;1.20;;;-4.30;99.90;;;;;;5075025;28;20134;-83
2022/01/30 10:58:21;;;;;;;1.92;1.60;;;-4.30;99.90;;;;;;5071687;28;20105;-83
2022/01/30 11:00:58;;;;;;;2.90;1.35;;;-4.30;99.90;;;;;;5071242;28;20131;-83
2022/01/30 11:03:51;;;;;;;1.75;1.20;;;-4.30;99.90;;;;;;5070291;28;20441;-83
2022/01/30 11:06:17;;;;;;;2.08;1.17;;;-4.30;99.90;;;;;;5071524;28;20099;-83
2022/01/30 11:08:47;;;;;;;2.80;1.00;;;-4.30;99.90;;;;;;5071697;28;20024;-83
2022/01/30 11:14:13;;;;;;;2.08;1.05;;;-4.30;99.90;;;;;;5071567;28;20444;-77
2022/01/30 11:19:25;;;;;;;2.35;1.42;;;-4.30;99.90;;;;;;5071533;28;20387;-81
2022/01/30 11:21:55;;;;;;;1.60;1.23;;;-4.30;99.90;;;;;;5071531;28;20054;-77
2022/01/30 11:24:24;;;;;;;1.30;1.20;;;-4.20;99.90;;;;;;5071056;28;20459;-79
2022/01/30 11:26:50;;;;;;;1.15;1.00;;;-4.20;99.90;;;;;;5071153;28;20024;-79
2022/01/30 11:29:20;;;;;;;1.35;1.25;;;-4.30;99.90;;;;;;5071159;28;20119;-84
2022/01/30 11:31:46;;;;;;;1.60;1.40;;;-4.20;99.90;;;;;;5073870;28;20025;-79
2022/01/30 11:34:13;;;;;;;1.63;1.48;;;-4.10;99.90;;;;;;5074863;28;20024;-78
2022/01/30 11:36:41;;;;;;;1.77;1.20;;;-4.10;99.90;;;;;;5075021;28;20020;-80
2022/01/30 11:39:08;;;;;;;1.50;1.40;;;-4.10;99.90;;;;;;5074732;28;20053;-79
2022/01/30 11:41:34;;;;;;;1.25;1.02;;;-4.10;99.90;;;;;;5074775;28;20071;-78
2022/01/30 11:44:18;;;;;;;1.00;1.00;;;-4.10;99.90;;;;;;5074734;28;20020;-78
2022/01/30 11:47:04;;;;;;;1.75;1.15;;;-4.10;99.90;;;;;;5074758;28;20032;-78
2022/01/30 11:49:43;;;;;;;1.10;1.00;;;-4.00;99.90;;;;;;5074505;28;20078;-77
2022/01/30 11:52:11;;;;;;;2.15;1.00;;;-4.00;99.90;;;;;;5074621;28;20081;-77
2022/01/30 11:54:48;;;;;;;1.55;1.10;;;-4.00;99.90;;;;;;5074652;28;20529;-77
2022/01/30 11:57:33;;;;;;;1.00;1.00;;;-4.10;99.90;;;;;;5074563;28;20039;-77
2022/01/30 12:00:05;;;;;;;1.45;1.20;;;-4.00;99.90;;;;;;5063805;28;20036;-76
2022/01/30 12:02:34;;;;;;;2.17;1.00;;;-4.00;99.90;;;;;;5074474;28;20039;-77
2022/01/30 12:05:05;;;;;;;1.95;0.90;;;-4.00;99.90;;;;;;5074543;28;20472;-78
2022/01/30 12:07:42;;;;;;;3.47;1.13;;;-3.90;99.90;;;;;;5074479;28;20060;-78
2022/01/30 12:10:19;;;;;;;1.90;1.10;;;-3.90;99.90;;;;;;5074593;28;20016;-78
2022/01/30 12:12:55;;;;;;;3.17;1.20;;;-3.80;99.90;;;;;;5074629;28;20068;-77
2022/01/30 12:15:40;;;;;;;0.90;0.90;;;-3.80;99.90;;;;;;5074296;28;20012;-77
2022/01/30 12:18:09;;;;;;;1.20;1.10;;;-3.90;99.90;;;;;;5074257;28;20028;-77
2022/01/30 12:20:57;;;;;;;3.78;1.25;;;-3.90;99.90;;;;;;5074068;28;20047;-78
2022/01/30 12:23:28;;;;;;;2.90;1.20;;;-3.80;99.90;;;;;;5054036;28;20032;-77
2022/01/30 12:26:07;;;;;;;1.20;1.10;;;-3.70;99.90;;;;;;5054106;28;20025;-77
2022/01/30 12:28:51;;;;;;;3.00;1.00;;;-3.70;99.90;;;;;;5054030;28;20033;-78
2022/01/30 12:31:34;;;;;;;1.42;1.10;;;-3.70;99.90;;;;;;5054073;28;20060;-83
2022/01/30 12:34:07;;;;;;;2.20;1.15;;;-3.70;99.90;;;;;;5065129;28;20480;-80
2022/01/30 12:36:41;;;;;;;2.10;1.00;;;-3.80;99.90;;;;;;5072591;28;20024;-80
2022/01/30 12:39:11;;;;;;;1.25;1.00;;;-3.80;99.90;;;;;;5073652;28;20045;-80
2022/01/30 12:41:39;;;;;;;1.17;1.02;;;-3.70;99.90;;;;;;5073689;28;20624;-80
2022/01/30 12:44:11;;;;;;;2.10;1.20;;;-3.40;99.90;;;;;;5073623;28;20476;-80
2022/01/30 12:46:48;;;;;;;2.80;1.00;;;-3.50;99.90;;;;;;5073698;28;20025;-80
2022/01/30 12:49:27;;;;;;;1.80;1.25;;;-3.60;99.90;;;;;;5073615;28;20025;-79
2022/01/30 12:51:55;;;;;;;2.67;1.40;;;-3.70;99.90;;;;;;5073592;28;20021;-80
2022/01/30 12:54:27;;;;;;;1.23;1.05;;;-3.80;99.90;;;;;;5073442;28;20023;-80
2022/01/30 12:56:54;;;;;;;2.45;1.17;;;-3.80;99.90;;;;;;5073787;28;20033;-80
2022/01/30 12:59:25;;;;;;;2.38;1.05;;;-3.90;99.90;;;;;;5073348;28;20016;-79
2022/01/30 13:01:51;;;;;;;2.80;1.20;;;-3.90;99.90;;;;;;5073635;28;20058;-80
2022/01/30 13:04:21;;;;;;;1.27;1.17;;;-3.80;99.90;;;;;;5073255;28;20472;-79
2022/01/30 13:06:53;;;;;;;1.48;1.30;;;-3.80;99.90;;;;;;5073101;28;20028;-75
2022/01/30 13:09:27;;;;;;;1.40;1.30;;;-2.20;99.90;;;;;;5071875;28;20383;-74
2022/01/30 13:11:54;;;;;;;2.03;1.15;;;-2.20;99.90;;;;;;5073161;28;20464;-74
2022/01/30 13:14:21;;;;;;;1.20;1.10;;;-2.60;99.90;;;;;;5073463;28;20345;-71
2022/01/30 13:16:50;;;;;;;2.80;1.08;;;-2.40;99.90;;;;;;5073424;28;20020;-77
2022/01/30 13:19:50;;;;;;;0.85;0.85;;;-2.60;99.90;;;;;;5073055;28;20103;-75
2022/01/30 13:22:37;;;;;;;1.58;1.20;;;-2.90;99.90;;;;;;5029513;28;20578;-75
2022/01/30 13:25:06;;;;;;;3.67;1.02;;;-3.10;99.90;;;;;;5073081;28;20039;-76
2022/01/30 13:27:32;;;;;;;1.00;1.00;;;-3.30;99.90;;;;;;5071504;28;20021;-76
2022/01/30 13:29:58;;;;;;;3.72;1.20;;;-3.40;99.90;;;;;;5072788;28;20028;-75
2022/01/30 13:32:28;;;;;;;1.35;1.13;;;-3.50;99.90;;;;;;5072672;28;20116;-75
2022/01/30 13:34:56;;;;;;;3.65;1.30;;;-3.50;99.90;;;;;;5072860;28;20514;-76
2022/01/30 13:37:22;;;;;;;3.15;1.50;;;-3.50;99.90;;;;;;5071939;28;20043;-76
2022/01/30 13:40:08;;;;;;;2.88;1.30;;;-3.50;99.90;;;;;;5072606;28;20507;-76
2022/01/30 13:48:11;;;;;;;1.42;1.05;;;-3.60;99.90;;;;;;5069389;28;20036;-81
2022/01/30 13:50:41;;;;;;;2.58;1.40;;;-3.70;99.90;;;;;;5071971;28;20376;-76
2022/01/30 13:53:12;;;;;;;1.77;1.30;;;-3.30;99.90;;;;;;5071912;28;20100;-78
2022/01/30 13:56:00;;;;;;;1.10;1.00;;;-2.80;99.90;;;;;;5071780;28;20056;-75
2022/01/30 13:58:47;;;;;;;4.88;4.47;;;-3.00;99.90;;;;;;5071987;28;20109;-77
2022/01/30 14:01:15;;;;;;;1.80;1.33;;;-3.30;99.90;;;;;;5071777;28;20051;-76
2022/01/30 14:03:43;;;;;;;1.23;1.13;;;-3.40;99.90;;;;;;5072193;28;20037;-76
2022/01/30 14:06:17;;;;;;;5.30;1.38;;;-3.60;99.90;;;;;;5071998;28;20024;-76
2022/01/30 14:08:54;;;;;;;1.35;1.00;;;-3.70;99.90;;;;;;5072174;28;20024;-77
2022/01/30 14:11:32;;;;;;;2.38;0.82;;;-3.70;99.90;;;;;;5071721;28;20024;-77
2022/01/30 14:14:09;;;;;;;3.70;1.20;;;-3.70;99.90;;;;;;5072101;28;20074;-76
2022/01/30 14:16:38;;;;;;;0.90;0.90;;;-3.80;99.90;;;;;;5072106;28;20708;-74
2022/01/30 14:19:20;;;;;;;1.27;1.20;;;-3.80;99.90;;;;;;5072206;28;20028;-76
2022/01/30 14:21:48;;;;;;;1.40;0.98;;;-3.90;99.90;;;;;;5071604;28;20039;-76
2022/01/30 14:24:27;;;;;;;6.70;3.55;;;-3.90;99.90;;;;;;5071795;28;20025;-76
2022/01/30 14:27:07;;;;;;;5.82;2.22;;;-3.90;99.90;;;;;;5071921;28;20476;-77
2022/01/30 14:29:33;;;;;;;1.45;1.35;;;-3.90;99.90;;;;;;5071935;28;20112;-78
2022/01/30 14:32:02;;;;;;;1.58;1.33;;;-4.00;99.90;;;;;;5071884;28;20035;-76
2022/01/30 14:34:29;;;;;;;1.38;1.27;;;-4.00;99.90;;;;;;5071822;28;20027;-76
2022/01/30 14:37:00;;;;;;;1.60;1.20;;;-4.00;99.90;;;;;;5071814;28;20040;-76
2022/01/30 14:39:28;;;;;;;;;;;-4.10;99.90;;;;;;5071434;28;20511;-75
2022/01/30 14:41:54;;;;;;;1.10;1.10;;;-4.20;99.90;;;;;;5063661;28;19962;-76
2022/01/30 14:44:20;;;;;;;1.48;1.20;;;-4.20;99.90;;;;;;5067862;28;20024;-75
2022/01/30 14:46:47;;;;;;;1.30;1.20;;;-4.20;99.90;;;;;;5071786;28;20035;-76
2022/01/30 14:49:12;;;;;;;4.03;1.20;;;-4.20;99.90;;;;;;5071769;28;20028;-75
2022/01/30 14:51:38;;;;;;;1.75;1.35;;;-4.20;99.90;;;;;;5070524;28;20021;-75
2022/01/30 14:54:04;;;;;;;6.38;1.85;;;-4.20;99.90;;;;;;5072625;28;20025;-74
2022/01/30 14:56:30;;;;;;;2.95;2.10;;;-4.20;99.90;;;;;;5076078;28;20031;-75
2022/01/30 14:58:56;;;;;;;4.47;2.75;;;-4.20;99.90;;;;;;5074129;28;20020;-75
2022/01/30 15:01:22;;;;;;;7.00;2.92;;;-4.30;99.90;;;;;;5070715;28;20024;-75
2022/01/30 15:03:48;;;;;;;3.15;2.50;;;-4.50;99.90;;;;;;5072012;28;20047;-75
2022/01/30 15:06:14;;;;;;;2.08;1.73;;;-4.60;99.90;;;;;;5072851;28;20027;-75